Isabella — 9HSL7 — position and weather

sailwx.info

Track history (hours):
 
Tides and Currents Weather Stations Pressure Air Temp Water Temp Dewpoint Dewpoint Depression Visibility Wind Speed Wind Dir Waves Ship Positions

Isabella

Last reported at 2016-May-06 04:24 UTC. Time now 2016-May-06 05:25 UTC.
Position N 35°57' E 014°54'.

Length 244 m; draft 9 m.

Type: Tanker. MMSI: 215545000.

Date/timePositionNaut miles runAvg speedWind from/ knotsBaromVisibWave heightAir tempDewpointWater temp
2016-May-06 04:24N 35°57' E 014°54'0 0.1
2016-May-06 02:30N 35°57' E 014°54'0 0.0
2016-May-06 01:30N 35°57' E 014°54'0 0.0
2016-May-05 22:33N 35°57' E 014°54'0 0.0
2016-May-05 21:33N 35°57' E 014°54'0 0.0
2016-May-05 15:30N 35°57' E 014°54'0 0.0
2016-May-05 14:27N 35°57' E 014°54'0 0.1
2016-May-05 13:33N 35°57' E 014°54'0 0.0
2016-May-05 12:18N 35°57' E 014°55'0 0.0
2016-May-05 11:33N 35°57' E 014°55'0 0.0
2016-May-05 10:15N 35°57' E 014°55'0 0.0
2016-May-05 09:06N 35°57' E 014°55'0 0.0
2016-May-05 08:33N 35°57' E 014°55'0 0.0
2016-May-05 07:18N 35°57' E 014°55'0 0.0
2016-May-05 06:27N 35°57' E 014°55'0 0.0
2016-May-05 05:30N 35°57' E 014°55'0 0.0
2016-May-05 04:33N 35°57' E 014°55'0 0.0
2016-May-05 03:33N 35°57' E 014°55'0 0.0
2016-May-05 02:33N 35°57' E 014°55'0 0.0
2016-May-05 01:33N 35°57' E 014°55'0 0.0
2016-May-05 00:33N 35°57' E 014°55'0 0.0
2016-May-04 23:33N 35°57' E 014°55'0 0.0
2016-May-04 22:24N 35°57' E 014°55'0 0.0
2016-May-04 21:33N 35°57' E 014°55'0 0.0
2016-May-04 19:27N 35°57' E 014°55'0 0.0
2016-May-04 18:33N 35°57' E 014°55'0 0.0
2016-May-04 16:15N 35°57' E 014°55'0 0.2
2016-May-04 15:33N 35°57' E 014°54'17 3.4
2016-May-04 10:33N 36°11' E 014°42'5 5.0
2016-May-04 09:33N 36°13' E 014°37'4 4.3
2016-May-04 08:33N 36°12' E 014°42'5 4.6
2016-May-04 07:33N 36°10' E 014°47'3 0.1
2016-May-03 07:16N 36°10' E 014°50'6 7.8
2016-May-03 06:33N 36°12' E 014°44'2 2.3
2016-May-03 05:33N 36°11' E 014°46'19 0.5
2016-May-01 17:18N 35°53' E 014°50'0 0.0
2016-May-01 11:19N 35°53' E 014°50'0 0.0
2016-May-01 10:31N 35°53' E 014°50'0 0.0
2016-May-01 09:31N 35°53' E 014°50'0 0.0
2016-May-01 08:31N 35°53' E 014°50'0 0.0
2016-May-01 07:31N 35°52' E 014°50'0 0.0
2016-May-01 06:31N 35°53' E 014°50'0 0.0
2016-May-01 05:31N 35°52' E 014°50'0 0.1
2016-May-01 04:31N 35°53' E 014°50'0 0.0
2016-May-01 03:31N 35°53' E 014°50'0 0.0
2016-May-01 02:31N 35°53' E 014°50'0 0.0
2016-May-01 01:25N 35°53' E 014°50'0 0.0
2016-May-01 00:31N 35°53' E 014°50'0 0.0
2016-Apr-30 23:31N 35°53' E 014°50'0 0.0
2016-Apr-30 22:25N 35°53' E 014°50'0 0.0
2016-Apr-30 21:25N 35°53' E 014°50'0 0.0
2016-Apr-30 20:31N 35°53' E 014°50'0 0.0
2016-Apr-30 19:31N 35°53' E 014°50'0 0.0
2016-Apr-30 18:28N 35°53' E 014°50'0 0.0
2016-Apr-30 17:31N 35°53' E 014°50'0 0.0
2016-Apr-30 16:31N 35°53' E 014°50'0 0.0
2016-Apr-30 15:31N 35°53' E 014°50'0 0.0
2016-Apr-30 14:31N 35°53' E 014°50'0 0.0
2016-Apr-30 12:22N 35°53' E 014°50'0 0.0
2016-Apr-30 08:10N 35°53' E 014°50'0 0.0
2016-Apr-30 07:19N 35°53' E 014°50'0 0.0
2016-Apr-30 06:31N 35°53' E 014°50'0 0.0
2016-Apr-30 05:31N 35°53' E 014°50'0 0.0
2016-Apr-30 04:22N 35°53' E 014°50'0 0.0
2016-Apr-30 02:28N 35°53' E 014°50'0 0.0
2016-Apr-30 01:31N 35°53' E 014°50'0 0.0
2016-Apr-29 23:25N 35°53' E 014°50'0 0.0
2016-Apr-29 22:31N 35°53' E 014°50'0 0.0
2016-Apr-29 21:31N 35°53' E 014°50'0 0.0
2016-Apr-29 20:28N 35°53' E 014°50'0 0.0
2016-Apr-29 19:22N 35°53' E 014°50'0 0.0
2016-Apr-29 18:31N 35°53' E 014°50'0 0.0
2016-Apr-29 17:31N 35°53' E 014°50'0 0.0
2016-Apr-29 16:28N 35°53' E 014°50'0 0.0
2016-Apr-29 15:31N 35°53' E 014°50'0 0.0
2016-Apr-29 14:28N 35°53' E 014°50'0 0.0
2016-Apr-29 13:31N 35°53' E 014°50'0 0.0
2016-Apr-29 12:31N 35°53' E 014°50'0 0.0
2016-Apr-29 11:31N 35°53' E 014°50'0 0.1
2016-Apr-29 10:31N 35°52' E 014°50'0 0.0
2016-Apr-29 09:28N 35°52' E 014°50'0 0.0
2016-Apr-29 08:31N 35°52' E 014°50'0 0.0
2016-Apr-29 07:25N 35°52' E 014°50'0 0.0
2016-Apr-29 06:22N 35°52' E 014°50'0 0.0
2016-Apr-29 05:31N 35°52' E 014°50'0 0.0
2016-Apr-29 04:32N 35°52' E 014°50'0 0.0
2016-Apr-29 03:32N 35°52' E 014°50'0 0.0
2016-Apr-29 02:32N 35°52' E 014°50'0 0.0
2016-Apr-28 20:32N 35°53' E 014°50'0 0.0
2016-Apr-28 15:05N 35°53' E 014°50'0 0.0
2016-Apr-28 14:29N 35°53' E 014°50'0 0.0
2016-Apr-28 13:11N 35°53' E 014°50'0 0.0
2016-Apr-28 12:32N 35°53' E 014°50'0 0.0
2016-Apr-28 11:32N 35°53' E 014°50'0 0.0
2016-Apr-28 10:32N 35°53' E 014°50'0 0.0
2016-Apr-28 09:26N 35°53' E 014°50'0 0.1
2016-Apr-28 08:32N 35°53' E 014°50'0 0.0
2016-Apr-28 07:32N 35°53' E 014°50'0 0.0
2016-Apr-28 06:32N 35°53' E 014°50'0 0.0
2016-Apr-28 05:32N 35°53' E 014°50'0 0.0
2016-Apr-28 04:29N 35°53' E 014°50'0 0.0
2016-Apr-28 03:32N 35°53' E 014°50'0 0.0
2016-Apr-28 02:32N 35°53' E 014°50'0 0.0
2016-Apr-28 01:32N 35°53' E 014°50'0 0.0
2016-Apr-28 00:32N 35°53' E 014°50'0 0.0
2016-Apr-27 23:32N 35°53' E 014°50'0 0.0
2016-Apr-27 22:32N 35°53' E 014°50'0 0.0
2016-Apr-27 21:23N 35°53' E 014°50'0 0.0
2016-Apr-27 20:32N 35°53' E 014°50'0 0.0
2016-Apr-27 12:32N 35°53' E 014°50'0 0.1
2016-Apr-27 11:32N 35°53' E 014°50'0 0.0
2016-Apr-27 10:32N 35°53' E 014°50'0 0.0
2016-Apr-27 09:26N 35°53' E 014°50'0 0.0
2016-Apr-27 08:32N 35°53' E 014°50'0 0.0
2016-Apr-27 07:32N 35°53' E 014°50'0 0.0
2016-Apr-27 06:32N 35°53' E 014°50'0 0.0
2016-Apr-27 05:32N 35°53' E 014°50'0 0.0
2016-Apr-27 04:32N 35°53' E 014°50'0 0.1
2016-Apr-27 03:32N 35°53' E 014°51'0 0.1
2016-Apr-27 02:29N 35°52' E 014°50'0 0.0
2016-Apr-27 01:32N 35°52' E 014°50'0 0.0
2016-Apr-27 00:11N 35°52' E 014°50'0 0.0
2016-Apr-26 23:26N 35°52' E 014°51'0 0.0
2016-Apr-26 22:32N 35°52' E 014°51'0 0.0
2016-Apr-26 21:29N 35°52' E 014°51'0 0.0
2016-Apr-26 20:29N 35°52' E 014°51'0 0.0
2016-Apr-26 19:29N 35°52' E 014°51'0 0.0
2016-Apr-26 18:26N 35°52' E 014°51'0 0.0
2016-Apr-26 17:32N 35°52' E 014°51'0 0.0
2016-Apr-26 16:32N 35°52' E 014°51'0 0.0
2016-Apr-26 15:32N 35°52' E 014°51'0 0.0
2016-Apr-26 14:29N 35°52' E 014°51'0 0.0
2016-Apr-26 13:08N 35°52' E 014°51'0 0.1
2016-Apr-26 12:32N 35°52' E 014°51'0 0.0
2016-Apr-26 11:32N 35°52' E 014°51'0 0.0
2016-Apr-26 10:26N 35°52' E 014°51'0 0.0
2016-Apr-26 09:32N 35°52' E 014°51'0 0.3
2016-Apr-26 08:26N 35°52' E 014°51'0 0.0
2016-Apr-26 07:20N 35°52' E 014°51'0 0.0
2016-Apr-26 06:29N 35°53' E 014°51'0 0.0
2016-Apr-26 05:26N 35°52' E 014°51'  
Track history (hours):
 
Tides and Currents Weather Stations Pressure Air Temp Water Temp Dewpoint Dewpoint Depression Visibility Wind Speed Wind Dir Waves Ship Positions

Isabella

Last reported at 2016-May-06 04:24 UTC. Time now 2016-May-06 05:25 UTC.
Position N 35°57' E 014°54'.

Length 244 m; draft 9 m.

Type: Tanker. MMSI: 215545000.

Date/timePositionNaut miles runAvg speedWind from/ knotsBaromVisibWave heightAir tempDewpointWater temp
2016-May-06 04:24N 35°57' E 014°54'0 0.1
2016-May-06 02:30N 35°57' E 014°54'0 0.0
2016-May-06 01:30N 35°57' E 014°54'0 0.0
2016-May-05 22:33N 35°57' E 014°54'0 0.0
2016-May-05 21:33N 35°57' E 014°54'0 0.0
2016-May-05 15:30N 35°57' E 014°54'0 0.0
2016-May-05 14:27N 35°57' E 014°54'0 0.1
2016-May-05 13:33N 35°57' E 014°54'0 0.0
2016-May-05 12:18N 35°57' E 014°55'0 0.0
2016-May-05 11:33N 35°57' E 014°55'0 0.0
2016-May-05 10:15N 35°57' E 014°55'0 0.0
2016-May-05 09:06N 35°57' E 014°55'0 0.0
2016-May-05 08:33N 35°57' E 014°55'0 0.0
2016-May-05 07:18N 35°57' E 014°55'0 0.0
2016-May-05 06:27N 35°57' E 014°55'0 0.0
2016-May-05 05:30N 35°57' E 014°55'0 0.0
2016-May-05 04:33N 35°57' E 014°55'0 0.0
2016-May-05 03:33N 35°57' E 014°55'0 0.0
2016-May-05 02:33N 35°57' E 014°55'0 0.0
2016-May-05 01:33N 35°57' E 014°55'0 0.0
2016-May-05 00:33N 35°57' E 014°55'0 0.0
2016-May-04 23:33N 35°57' E 014°55'0 0.0
2016-May-04 22:24N 35°57' E 014°55'0 0.0
2016-May-04 21:33N 35°57' E 014°55'0 0.0
2016-May-04 19:27N 35°57' E 014°55'0 0.0
2016-May-04 18:33N 35°57' E 014°55'0 0.0
2016-May-04 16:15N 35°57' E 014°55'0 0.2
2016-May-04 15:33N 35°57' E 014°54'17 3.4
2016-May-04 10:33N 36°11' E 014°42'5 5.0
2016-May-04 09:33N 36°13' E 014°37'4 4.3
2016-May-04 08:33N 36°12' E 014°42'5 4.6
2016-May-04 07:33N 36°10' E 014°47'3 0.1
2016-May-03 07:16N 36°10' E 014°50'6 7.8
2016-May-03 06:33N 36°12' E 014°44'2 2.3
2016-May-03 05:33N 36°11' E 014°46'19 0.5
2016-May-01 17:18N 35°53' E 014°50'0 0.0
2016-May-01 11:19N 35°53' E 014°50'0 0.0
2016-May-01 10:31N 35°53' E 014°50'0 0.0
2016-May-01 09:31N 35°53' E 014°50'0 0.0
2016-May-01 08:31N 35°53' E 014°50'0 0.0
2016-May-01 07:31N 35°52' E 014°50'0 0.0
2016-May-01 06:31N 35°53' E 014°50'0 0.0
2016-May-01 05:31N 35°52' E 014°50'0 0.1
2016-May-01 04:31N 35°53' E 014°50'0 0.0
2016-May-01 03:31N 35°53' E 014°50'0 0.0
2016-May-01 02:31N 35°53' E 014°50'0 0.0
2016-May-01 01:25N 35°53' E 014°50'0 0.0
2016-May-01 00:31N 35°53' E 014°50'0 0.0
2016-Apr-30 23:31N 35°53' E 014°50'0 0.0
2016-Apr-30 22:25N 35°53' E 014°50'0 0.0
2016-Apr-30 21:25N 35°53' E 014°50'0 0.0
2016-Apr-30 20:31N 35°53' E 014°50'0 0.0
2016-Apr-30 19:31N 35°53' E 014°50'0 0.0
2016-Apr-30 18:28N 35°53' E 014°50'0 0.0
2016-Apr-30 17:31N 35°53' E 014°50'0 0.0
2016-Apr-30 16:31N 35°53' E 014°50'0 0.0
2016-Apr-30 15:31N 35°53' E 014°50'0 0.0
2016-Apr-30 14:31N 35°53' E 014°50'0 0.0
2016-Apr-30 12:22N 35°53' E 014°50'0 0.0
2016-Apr-30 08:10N 35°53' E 014°50'0 0.0
2016-Apr-30 07:19N 35°53' E 014°50'0 0.0
2016-Apr-30 06:31N 35°53' E 014°50'0 0.0
2016-Apr-30 05:31N 35°53' E 014°50'0 0.0
2016-Apr-30 04:22N 35°53' E 014°50'0 0.0
2016-Apr-30 02:28N 35°53' E 014°50'0 0.0
2016-Apr-30 01:31N 35°53' E 014°50'0 0.0
2016-Apr-29 23:25N 35°53' E 014°50'0 0.0
2016-Apr-29 22:31N 35°53' E 014°50'0 0.0
2016-Apr-29 21:31N 35°53' E 014°50'0 0.0
2016-Apr-29 20:28N 35°53' E 014°50'0 0.0
2016-Apr-29 19:22N 35°53' E 014°50'0 0.0
2016-Apr-29 18:31N 35°53' E 014°50'0 0.0
2016-Apr-29 17:31N 35°53' E 014°50'0 0.0
2016-Apr-29 16:28N 35°53' E 014°50'0 0.0
2016-Apr-29 15:31N 35°53' E 014°50'0 0.0
2016-Apr-29 14:28N 35°53' E 014°50'0 0.0
2016-Apr-29 13:31N 35°53' E 014°50'0 0.0
2016-Apr-29 12:31N 35°53' E 014°50'0 0.0
2016-Apr-29 11:31N 35°53' E 014°50'0 0.1
2016-Apr-29 10:31N 35°52' E 014°50'0 0.0
2016-Apr-29 09:28N 35°52' E 014°50'0 0.0
2016-Apr-29 08:31N 35°52' E 014°50'0 0.0
2016-Apr-29 07:25N 35°52' E 014°50'0 0.0
2016-Apr-29 06:22N 35°52' E 014°50'0 0.0
2016-Apr-29 05:31N 35°52' E 014°50'0 0.0
2016-Apr-29 04:32N 35°52' E 014°50'0 0.0
2016-Apr-29 03:32N 35°52' E 014°50'0 0.0
2016-Apr-29 02:32N 35°52' E 014°50'0 0.0
2016-Apr-28 20:32N 35°53' E 014°50'0 0.0
2016-Apr-28 15:05N 35°53' E 014°50'0 0.0
2016-Apr-28 14:29N 35°53' E 014°50'0 0.0
2016-Apr-28 13:11N 35°53' E 014°50'0 0.0
2016-Apr-28 12:32N 35°53' E 014°50'0 0.0
2016-Apr-28 11:32N 35°53' E 014°50'0 0.0
2016-Apr-28 10:32N 35°53' E 014°50'0 0.0
2016-Apr-28 09:26N 35°53' E 014°50'0 0.1
2016-Apr-28 08:32N 35°53' E 014°50'0 0.0
2016-Apr-28 07:32N 35°53' E 014°50'0 0.0
2016-Apr-28 06:32N 35°53' E 014°50'0 0.0
2016-Apr-28 05:32N 35°53' E 014°50'0 0.0
2016-Apr-28 04:29N 35°53' E 014°50'0 0.0
2016-Apr-28 03:32N 35°53' E 014°50'0 0.0
2016-Apr-28 02:32N 35°53' E 014°50'0 0.0
2016-Apr-28 01:32N 35°53' E 014°50'0 0.0
2016-Apr-28 00:32N 35°53' E 014°50'0 0.0
2016-Apr-27 23:32N 35°53' E 014°50'0 0.0
2016-Apr-27 22:32N 35°53' E 014°50'0 0.0
2016-Apr-27 21:23N 35°53' E 014°50'0 0.0
2016-Apr-27 20:32N 35°53' E 014°50'0 0.0
2016-Apr-27 12:32N 35°53' E 014°50'0 0.1
2016-Apr-27 11:32N 35°53' E 014°50'0 0.0
2016-Apr-27 10:32N 35°53' E 014°50'0 0.0
2016-Apr-27 09:26N 35°53' E 014°50'0 0.0
2016-Apr-27 08:32N 35°53' E 014°50'0 0.0
2016-Apr-27 07:32N 35°53' E 014°50'0 0.0
2016-Apr-27 06:32N 35°53' E 014°50'0 0.0
2016-Apr-27 05:32N 35°53' E 014°50'0 0.0
2016-Apr-27 04:32N 35°53' E 014°50'0 0.1
2016-Apr-27 03:32N 35°53' E 014°51'0 0.1
2016-Apr-27 02:29N 35°52' E 014°50'0 0.0
2016-Apr-27 01:32N 35°52' E 014°50'0 0.0
2016-Apr-27 00:11N 35°52' E 014°50'0 0.0
2016-Apr-26 23:26N 35°52' E 014°51'0 0.0
2016-Apr-26 22:32N 35°52' E 014°51'0 0.0
2016-Apr-26 21:29N 35°52' E 014°51'0 0.0
2016-Apr-26 20:29N 35°52' E 014°51'0 0.0
2016-Apr-26 19:29N 35°52' E 014°51'0 0.0
2016-Apr-26 18:26N 35°52' E 014°51'0 0.0
2016-Apr-26 17:32N 35°52' E 014°51'0 0.0
2016-Apr-26 16:32N 35°52' E 014°51'0 0.0
2016-Apr-26 15:32N 35°52' E 014°51'0 0.0
2016-Apr-26 14:29N 35°52' E 014°51'0 0.0
2016-Apr-26 13:08N 35°52' E 014°51'0 0.1
2016-Apr-26 12:32N 35°52' E 014°51'0 0.0
2016-Apr-26 11:32N 35°52' E 014°51'0 0.0
2016-Apr-26 10:26N 35°52' E 014°51'0 0.0
2016-Apr-26 09:32N 35°52' E 014°51'0 0.3
2016-Apr-26 08:26N 35°52' E 014°51'0 0.0
2016-Apr-26 07:20N 35°52' E 014°51'0 0.0
2016-Apr-26 06:29N 35°53' E 014°51'0 0.0
2016-Apr-26 05:26N 35°52' E 014°51'  

Dump ship's entire track history